Mobile, AL (36619)

6:57 AM CST on January 25, 2015 (GMT -0600)
K4VW | Change Station
CLOSE
Current Station
Personal Weather Station
Location: West Mobile, AL
Elevation: 96 ft
Nearby Weather Stations
Active Advisory: Coastal Hazard Statement

Elev 96 ft 30.61 °N, 88.23 °W | Updated 7 minutes ago

Clear
Clear
34.9 °F
Feels Like 35 °F
N
0.0
Wind Variable Wind from WSW
Gusts 0.0 mph

Today
High -- | Low -- °F
--% Chance of Precip.
Yesterday
High -- | Low -- °F
Precip. -- in
6:47 AM 5:22 PM
Waxing Crescent, 32% visible
Pressure 30.04 in
Visibility 8.0 miles
Clouds Few 25000 ft
Windchill 35 °F
Dew Point 32 °F
Humidity 91%
Rainfall 0.00 in
Snow Depth Not available.
UV 0 out of 12
Pollen 5.80 out of 12
Air Quality Not available.
Flu Activity Not available.
METAR KMOB 251156Z 24003KT 8SM FEW250 03/02 A3004 RMK AO2 SLP171 T00330022 10061 20017 58008

More Conditions Fewer Conditions

Pressure 30.04 in
Visibility 8.0 miles
Clouds Few 25000 ft
Windchill 35 °F
Dew Point 32 °F
Humidity 91%
Rainfall 0.00 in
Snow Depth Not available.
UV 0 out of 12
Pollen 5.80 out of 12
Air Quality Not available.
Flu Activity Not available.
METAR KMOB 251156Z 24003KT 8SM FEW250 03/02 A3004 RMK AO2 SLP171 T00330022 10061 20017 58008

More Conditions Fewer Conditions

10-Day Weather Forecast

Almanac

Astronomy

Jan. 25, 2015 Rise Set
Actual Time
Civil Twilight
Nautical Twilight
Astronomical Twilight
Moon
Length of Visible Light
Length of Day
Tomorrow will be .
, % of the Moon is Illuminated

Today's Extremes

State Highs State Lows

Community

WunderPhotos

Upload Photos

1,789,875 photos uploaded!

WunderBlogs® & News

Nearby

Air Quality

  Air Quality AQ Index Pollutant
Not available.

Snow Depth

Station Depth Elevation

Earthquake Activity

City Distance Mag. Time & Date
Minimum magnitude displayed is 2.5.

Coastal Water Temperatures

Place Temperature

Nearby Weather Stations